Ask Your Question

Mike Kaganski's profile - karma

Mike Kaganski's karma change log

10 0 How do I apply columns to a paragraph in Writer (LO6)? ( 2018-04-24 18:49:38 +0200 )

10 0 I have that by add a sum in a column gives a date ( 2018-04-23 16:13:59 +0200 )

10 0 How do I apply columns to a paragraph in Writer (LO6)? ( 2018-04-23 10:25:10 +0200 )

10 0 Please add deprecation message to "community wiki" checkbox ( 2018-04-21 17:53:47 +0200 )

15 0 Page sizes inaccurate on 4K display. ( 2018-04-20 04:14:59 +0200 )

10 0 endnote word conversation ( 2018-04-19 15:37:19 +0200 )

10 0 Invalid installation package error ( 2018-04-17 21:46:30 +0200 )

15 0 Inserting TOC across pages with two styles ( 2018-04-17 15:43:32 +0200 )

10 0 Assistance with sorting 'csv' sheet ( 2018-04-16 18:54:40 +0200 )

10 0 Copy text only ( 2018-04-16 16:59:10 +0200 )

0 -2 Cancelled means CANCELLED! ( 2018-04-14 12:59:31 +0200 )

15 0 Writer - cannot select shape object ( 2018-04-11 21:25:13 +0200 )

10 0 How to bring an object back to the foreground thats been sent to the background ( 2018-04-10 20:26:58 +0200 )

15 0 ./configure - wsd folder - ${MASTER} - wrong path ( 2018-04-09 10:56:48 +0200 )

10 0 Problems with tables in Writer 6.0.2.1 ( 2018-04-09 09:13:02 +0200 )

10 0 Problems with tables in Writer 6.0.2.1 ( 2018-04-08 23:01:48 +0200 )

10 0 Problems with tables in Writer 6.0.2.1 ( 2018-04-08 20:55:10 +0200 )

0 -15 How do you underline the entire cell?, ( 2018-04-07 13:27:43 +0200 )

15 0 How do you underline the entire cell?, ( 2018-04-07 13:27:38 +0200 )

10 0 Is there a version of LibreOffice in French ( 2018-04-04 22:52:19 +0200 )

15 0 Convert .xlsx to .pdf via command line ( 2018-04-03 21:59:32 +0200 )

15 0 Remove table borders from editting ( 2018-03-31 19:04:43 +0200 )

15 0 OLE object spanning multiple pages ( 2018-03-31 16:23:51 +0200 )

0 -2 can i integrate the LO spell checker into another program (Namely, a VB6, not .net) Thank you) ( 2018-03-31 10:21:03 +0200 )

10 0 Can I import a Word document into Libre Writer - if so, how? ( 2018-03-29 16:16:36 +0200 )

10 0 Can I import a Word document into Libre Writer - if so, how? ( 2018-03-29 11:23:51 +0200 )

15 0 Help! -LibreOffice Impress- Any slide master settings changes affects settings on *ALL* other slide masters! ( 2018-03-29 10:55:55 +0200 )

10 0 Files with ANSI (cp1251) encoding ( 2018-03-27 19:45:25 +0200 )

10 0 Is LibreOffice Online a stable application? ( 2018-03-27 14:06:10 +0200 )

10 0 Is LibreOffice Online a stable application? ( 2018-03-26 19:50:51 +0200 )

10 0 Formulae appear as text - how do I make it calculate (v.6 64-BIT ( 2018-03-26 14:43:55 +0200 )

10 0 intall on slackware/kde ( 2018-03-26 11:28:20 +0200 )

10 0 How do tab stops work with option buttons? ( 2018-03-26 11:18:32 +0200 )

15 0 How do tab stops work with option buttons? ( 2018-03-26 11:18:21 +0200 )

0 -2 Issue with Merged Cells of table on the document ( 2018-03-22 09:31:20 +0200 )

10 0 Where can i find a list of property names that are supported for each UNO DispatchCommand URL? ( 2018-03-20 17:38:32 +0200 )

15 0 Where can i find a list of property names that are supported for each UNO DispatchCommand URL? ( 2018-03-20 17:38:28 +0200 )

10 0 problème de demande JRE après l'installation libre office 6.02 ( 2018-03-16 12:12:07 +0200 )

10 0 I have seen LibreOffice on sale in a shop or on the internet - is it from you? ( 2018-03-16 09:58:33 +0200 )

10 0 Can't change (list) {decimal} separator ( 2018-03-13 15:22:26 +0200 )

10 0 make formulas adjust after inserting rows ( 2018-03-13 10:54:24 +0200 )

0 -10 make formulas adjust after inserting rows ( 2018-03-13 10:54:23 +0200 )

10 0 make formulas adjust after inserting rows ( 2018-03-13 09:49:46 +0200 )

15 0 How to zeroe the last 3 digits of a number (not rounding) ( 2018-03-12 17:14:43 +0200 )

10 0 How to zeroe the last 3 digits of a number (not rounding) ( 2018-03-12 10:17:13 +0200 )

10 0 what is needed in crash report ( 2018-03-09 13:07:10 +0200 )

10 0 is libreoffice available for windows 10? ( 2018-03-08 02:43:56 +0200 )

10 0 is libreoffice available for windows 10? ( 2018-03-07 05:58:46 +0200 )

10 0 All LO versions < 5.4.5/6.0.1 are not secure? ( 2018-02-23 12:40:39 +0200 )

15 0 Custom Options->Libre Office->Memory settings? ( 2018-02-20 04:41:52 +0200 )

10 0 How to disable "Scroll Lock" feature in Calc ( 2018-02-16 17:17:00 +0200 )

2 0 how to put document in landscape mode ( 2018-02-15 20:23:31 +0200 )

10 0 How to make a plain text file ( 2018-02-15 14:48:14 +0200 )

2 0 Libre 6 install attempts to install 2nd program VC Burnpipe ( 2018-02-15 08:09:18 +0200 )

0 -2 how to put document in landscape mode ( 2018-02-15 08:08:19 +0200 )

10 0 Draw page size much smaller than paper size ( 2018-02-14 20:33:32 +0200 )

10 0 Custom Options->Libre Office->Memory settings? ( 2018-02-14 12:42:54 +0200 )

15 0 Draw page size much smaller than paper size ( 2018-02-14 01:46:17 +0200 )

15 0 Increase Font Size of Calc Formula Toolbar in LibreOffice Version 6 ( 2018-02-13 16:05:08 +0200 )

10 0 calc prints false when cell empty in screen view - SOLVED ( 2018-02-12 14:04:07 +0200 )

10 0 calc prints false when cell empty in screen view - SOLVED ( 2018-02-12 13:43:33 +0200 )

10 0 How do I use whole number data validation? ( 2018-02-09 23:16:48 +0200 )

15 0 How do I use whole number data validation? ( 2018-02-09 21:29:38 +0200 )

10 0 All functions return result of ### ( 2018-02-07 20:59:59 +0200 )

10 0 Calculate a date (month and year) ( 2018-02-05 10:52:00 +0200 )

10 0 LibreOffice Basic: iterate through all images in a selection? ( 2018-02-03 11:16:54 +0200 )

15 0 How do I apply columns to a paragraph in Writer (LO6)? ( 2018-02-02 15:54:18 +0200 )

15 0 Formula in Calc to show the next month. ( 2018-02-01 15:42:58 +0200 )

0 -15 Formula in Calc to show the next month. ( 2018-02-01 15:39:17 +0200 )

15 0 Formula in Calc to show the next month. ( 2018-02-01 15:38:46 +0200 )

0 -15 Formula in Calc to show the next month. ( 2018-02-01 15:38:41 +0200 )

15 0 Formula in Calc to show the next month. ( 2018-02-01 15:38:34 +0200 )

0 -15 Formula in Calc to show the next month. ( 2018-02-01 15:35:47 +0200 )

10 0 Formula in Calc to show the next month. ( 2018-02-01 15:35:37 +0200 )

0 -10 Formula in Calc to show the next month. ( 2018-02-01 15:35:35 +0200 )

15 0 Formula in Calc to show the next month. ( 2018-02-01 15:35:29 +0200 )

0 -15 Formula in Calc to show the next month. ( 2018-02-01 14:38:33 +0200 )

15 0 Formula in Calc to show the next month. ( 2018-02-01 14:38:28 +0200 )

0 -15 Formula in Calc to show the next month. ( 2018-02-01 14:38:15 +0200 )

15 0 Formula in Calc to show the next month. ( 2018-02-01 14:37:37 +0200 )

0 -15 Formula in Calc to show the next month. ( 2018-02-01 14:13:46 +0200 )

15 0 Formula in Calc to show the next month. ( 2018-02-01 14:13:43 +0200 )

10 0 Formula in Calc to show the next month. ( 2018-02-01 14:11:25 +0200 )

15 0 Java Runtime Environment required ( 2018-02-01 10:24:10 +0200 )

10 0 Cell x changed from <empty> to x ( 2018-01-31 19:13:36 +0200 )

15 0 How can I sort a large Writer file? ( 2018-01-31 17:17:36 +0200 )

10 0 What determines the attributes contained in a character style? ( 2018-01-30 03:47:29 +0200 )

15 0 What determines the attributes contained in a character style? ( 2018-01-30 03:46:56 +0200 )

10 0 Why does formatting show attributes of both Paragraph and Character styles? ( 2018-01-30 01:59:55 +0200 )

15 0 Why does formatting show attributes of both Paragraph and Character styles? ( 2018-01-30 01:59:48 +0200 )

15 0 How to make a sum in B2 of all cells in B where the corresponding A contains A2 and D is 1. ( 2018-01-28 14:57:47 +0200 )

10 0 How to make a sum in B2 of all cells in B where the corresponding A contains A2 and D is 1. ( 2018-01-28 14:37:55 +0200 )

0 -10 How to make a sum in B2 of all cells in B where the corresponding A contains A2 and D is 1. ( 2018-01-28 14:37:53 +0200 )

0 -15 How to make a sum in B2 of all cells in B where the corresponding A contains A2 and D is 1. ( 2018-01-28 14:37:44 +0200 )

15 0 How to make a sum in B2 of all cells in B where the corresponding A contains A2 and D is 1. ( 2018-01-28 14:37:41 +0200 )

0 -15 How to make a sum in B2 of all cells in B where the corresponding A contains A2 and D is 1. ( 2018-01-28 14:37:40 +0200 )

15 0 How to make a sum in B2 of all cells in B where the corresponding A contains A2 and D is 1. ( 2018-01-28 14:37:39 +0200 )

0 -15 How to make a sum in B2 of all cells in B where the corresponding A contains A2 and D is 1. ( 2018-01-28 14:37:36 +0200 )

2 0 Read Only doc issues ( 2018-01-26 08:25:06 +0200 )

10 0 How to make a sum in B2 of all cells in B where the corresponding A contains A2 and D is 1. ( 2018-01-26 06:45:08 +0200 )